createdAt,value
2022-09-21T00:00:34.833Z,0
2022-09-21T00:01:35.129Z,0
2022-09-21T00:02:35.313Z,0
2022-09-21T00:03:35.105Z,0
2022-09-21T00:04:34.517Z,0
2022-09-21T00:05:34.233Z,0
2022-09-21T00:06:34.486Z,0
2022-09-21T00:07:34.248Z,0
2022-09-21T00:08:34.958Z,0
2022-09-21T00:09:34.421Z,0
2022-09-21T00:10:34.667Z,0
2022-09-21T00:11:34.654Z,0
2022-09-21T00:12:34.635Z,0
2022-09-21T00:13:34.617Z,0
2022-09-21T00:14:34.346Z,0
2022-09-21T00:15:34.338Z,0
2022-09-21T00:16:34.889Z,0
2022-09-21T00:17:34.843Z,0
2022-09-21T00:18:35.003Z,0
2022-09-21T00:19:34.599Z,0
2022-09-21T00:20:34.499Z,0
2022-09-21T00:21:34.235Z,0
2022-09-21T00:22:34.469Z,0
2022-09-21T00:23:34.196Z,0
2022-09-21T00:24:34.435Z,0
2022-09-21T00:25:34.675Z,0
2022-09-21T00:26:34.655Z,0
2022-09-21T00:27:34.395Z,0
2022-09-21T00:28:34.122Z,0
2022-09-21T00:29:34.358Z,0
2022-09-21T00:30:34.591Z,0
2022-09-21T00:31:34.431Z,0
2022-09-21T00:32:34.305Z,0
2022-09-21T00:33:34.296Z,0
2022-09-21T00:34:34.332Z,0
2022-09-21T00:35:34.566Z,0
2022-09-21T00:36:33.998Z,0
2022-09-21T00:37:34.250Z,0
2022-09-21T00:38:33.967Z,0
2022-09-21T00:39:33.954Z,0
2022-09-21T00:40:34.447Z,0
2022-09-21T00:41:34.166Z,0
2022-09-21T00:42:33.893Z,0
2022-09-21T00:43:33.883Z,0
2022-09-21T00:44:33.872Z,0
2022-09-21T00:45:34.583Z,0
2022-09-21T00:46:34.083Z,0
2022-09-21T00:47:33.819Z,0
2022-09-21T00:48:33.802Z,0
2022-09-21T00:49:33.776Z,0
2022-09-21T00:50:34.332Z,0
2022-09-21T00:51:34.048Z,0
2022-09-21T00:52:33.734Z,0
2022-09-21T00:53:33.975Z,0
2022-09-21T00:54:33.717Z,0
2022-09-21T00:55:33.940Z,0
2022-09-21T00:56:33.923Z,0
2022-09-21T00:57:33.663Z,0
2022-09-21T00:58:33.389Z,0
2022-09-21T00:59:37.066Z,0
2022-09-21T01:00:33.608Z,0
2022-09-21T01:01:33.973Z,0
2022-09-21T01:02:33.812Z,0
2022-09-21T01:03:33.813Z,0
2022-09-21T01:04:33.551Z,0
2022-09-21T01:05:33.785Z,0
2022-09-21T01:06:34.062Z,0
2022-09-21T01:07:33.550Z,0
2022-09-21T01:08:33.221Z,0
2022-09-21T01:09:33.472Z,0
2022-09-21T01:10:33.441Z,0
2022-09-21T01:11:33.769Z,0
2022-09-21T01:12:33.665Z,0
2022-09-21T01:13:33.918Z,0
2022-09-21T01:14:33.675Z,0
2022-09-21T01:15:33.371Z,0
2022-09-21T01:16:33.893Z,0
2022-09-21T01:17:33.582Z,0
2022-09-21T01:18:33.571Z,0
2022-09-21T01:19:33.045Z,0
2022-09-21T01:20:33.291Z,0
2022-09-21T01:21:33.770Z,0
2022-09-21T01:22:33.972Z,0
2022-09-21T01:23:33.535Z,0
2022-09-21T01:24:33.477Z,0
2022-09-21T01:25:33.198Z,0
2022-09-21T01:26:33.446Z,0
2022-09-21T01:27:33.437Z,0
2022-09-21T01:28:33.172Z,0
2022-09-21T01:29:33.670Z,0
2022-09-21T01:30:33.386Z,0
2022-09-21T01:31:33.297Z,0
2022-09-21T01:32:33.090Z,0
2022-09-21T01:33:33.322Z,0
2022-09-21T01:34:33.056Z,0
2022-09-21T01:36:04.861Z,0
2022-09-21T01:36:33.018Z,0
2022-09-21T01:37:33.512Z,0
2022-09-21T01:38:33.290Z,0
2022-09-21T01:39:33.527Z,0
2022-09-21T01:40:39.432Z,0
2022-09-21T01:41:32.936Z,0
2022-09-21T01:42:33.174Z,0
2022-09-21T01:43:32.644Z,0
2022-09-21T01:44:33.142Z,0
2022-09-21T01:45:33.280Z,0
2022-09-21T01:46:33.114Z,0
2022-09-21T01:47:32.842Z,0
2022-09-21T01:48:33.092Z,0
2022-09-21T01:49:33.057Z,0
2022-09-21T01:50:33.050Z,0
2022-09-21T01:51:33.026Z,0
2022-09-21T01:52:33.015Z,0
2022-09-21T01:53:32.493Z,0
2022-09-21T01:54:33.278Z,0
2022-09-21T01:55:33.097Z,0
2022-09-21T01:56:32.714Z,0
2022-09-21T01:57:32.685Z,0
2022-09-21T01:58:32.717Z,0
2022-09-21T01:59:32.893Z,0
2022-09-21T02:00:32.874Z,0
2022-09-21T02:01:32.605Z,0
2022-09-21T02:02:32.589Z,0
2022-09-21T02:03:32.839Z,0
2022-09-21T02:04:32.814Z,0
2022-09-21T02:05:32.799Z,0
2022-09-21T02:06:32.775Z,0
2022-09-21T02:07:33.030Z,0
2022-09-21T02:08:32.614Z,0
2022-09-21T02:09:32.480Z,0
2022-09-21T02:10:33.008Z,0
2022-09-21T02:11:32.999Z,0
2022-09-21T02:12:32.680Z,0
2022-09-21T02:13:32.916Z,0
2022-09-21T02:14:32.904Z,0
2022-09-21T02:15:32.636Z,0
2022-09-21T02:16:32.673Z,0
2022-09-21T02:17:32.614Z,0
2022-09-21T02:18:32.576Z,0
2022-09-21T02:19:32.305Z,0
2022-09-21T02:20:32.550Z,0
2022-09-21T02:21:32.277Z,0
2022-09-21T02:22:32.768Z,0
2022-09-21T02:23:32.498Z,0
2022-09-21T02:24:32.224Z,0
2022-09-21T02:25:32.208Z,0
2022-09-21T02:26:32.499Z,0
2022-09-21T02:27:32.737Z,0
2022-09-21T02:28:32.153Z,0
2022-09-21T02:29:32.677Z,0
2022-09-21T02:30:32.148Z,0
2022-09-21T02:31:32.617Z,0
2022-09-21T02:32:32.599Z,0
2022-09-21T02:33:32.599Z,0
2022-09-21T02:34:31.800Z,0
2022-09-21T02:35:32.559Z,0
2022-09-21T02:36:32.027Z,0
2022-09-21T02:37:32.269Z,0
2022-09-21T02:38:31.988Z,0
2022-09-21T02:39:32.232Z,0
2022-09-21T02:40:32.294Z,0
2022-09-21T02:41:31.943Z,0
2022-09-21T02:42:32.487Z,0
2022-09-21T02:43:32.269Z,0
2022-09-21T02:44:32.410Z,0
2022-09-21T02:45:31.617Z,0
2022-09-21T02:46:31.880Z,0
2022-09-21T02:47:31.587Z,0
2022-09-21T02:48:31.837Z,0
2022-09-21T02:49:32.330Z,0
2022-09-21T02:50:32.302Z,0
2022-09-21T02:51:31.772Z,0
2022-09-21T02:52:32.266Z,0
2022-09-21T02:53:31.996Z,0
2022-09-21T02:54:32.238Z,0
2022-09-21T02:55:31.706Z,0
2022-09-21T02:56:33.205Z,0
2022-09-21T02:57:32.183Z,0
2022-09-21T02:58:32.213Z,0
2022-09-21T02:59:31.996Z,0
2022-09-21T03:00:31.925Z,0
2022-09-21T03:01:32.286Z,0
2022-09-21T03:02:32.100Z,0
2022-09-21T03:03:31.618Z,0
2022-09-21T03:04:31.552Z,0
2022-09-21T03:05:31.886Z,0
2022-09-21T03:06:32.039Z,0
2022-09-21T03:07:32.012Z,0
2022-09-21T03:08:31.488Z,0
2022-09-21T03:09:31.469Z,0
2022-09-21T03:10:31.970Z,0
2022-09-21T03:11:31.697Z,0
2022-09-21T03:12:31.934Z,0
2022-09-21T03:13:31.660Z,0
2022-09-21T03:14:31.683Z,0
2022-09-21T03:15:31.936Z,0
2022-09-21T03:16:31.605Z,0
2022-09-21T03:17:31.848Z,0
2022-09-21T03:18:31.320Z,0
2022-09-21T03:19:31.809Z,0
2022-09-21T03:20:31.542Z,0
2022-09-21T03:21:31.535Z,0
2022-09-21T03:22:30.994Z,0
2022-09-21T03:23:31.563Z,0
2022-09-21T03:24:31.478Z,0
2022-09-21T03:25:31.201Z,0
2022-09-21T03:26:31.193Z,0
2022-09-21T03:27:31.416Z,0
2022-09-21T03:28:30.907Z,0
2022-09-21T03:29:31.385Z,0
2022-09-21T03:30:31.680Z,0
2022-09-21T03:31:31.723Z,0
2022-09-21T03:32:31.340Z,0
2022-09-21T03:49:27.841Z,0
2022-09-21T03:50:27.477Z,0
2022-09-21T03:51:27.712Z,0
2022-09-21T03:52:27.687Z,0
2022-09-21T03:53:27.418Z,0
2022-09-21T03:54:27.144Z,0
2022-09-21T03:55:27.127Z,0
2022-09-21T03:56:27.103Z,0
2022-09-21T03:57:27.343Z,0
2022-09-21T03:58:27.078Z,0
2022-09-21T03:59:27.060Z,0
2022-09-21T04:00:26.780Z,0
2022-09-21T04:01:27.083Z,0
2022-09-21T04:02:27.277Z,0
2022-09-21T04:03:26.995Z,0
2022-09-21T04:04:26.720Z,0
2022-09-21T04:05:27.557Z,0
2022-09-21T04:06:27.183Z,0
2022-09-21T04:07:26.912Z,0
2022-09-21T04:08:27.143Z,0
2022-09-21T04:09:26.876Z,0
2022-09-21T04:10:26.867Z,0
2022-09-21T04:11:27.100Z,0
2022-09-21T04:12:26.570Z,0
2022-09-21T04:13:26.553Z,0
2022-09-21T04:14:27.044Z,0
2022-09-21T04:15:27.026Z,0
2022-09-21T04:16:27.004Z,0
2022-09-21T04:17:26.736Z,0
2022-09-21T04:18:26.661Z,0
2022-09-21T04:19:27.229Z,0
2022-09-21T04:20:26.959Z,0
2022-09-21T04:21:27.359Z,0
2022-09-21T04:22:26.657Z,0
2022-09-21T04:23:26.895Z,0
2022-09-21T04:24:26.641Z,0
2022-09-21T04:25:26.602Z,0
2022-09-21T04:26:26.843Z,4
2022-09-21T04:27:26.822Z,4
2022-09-21T04:28:26.811Z,0
2022-09-21T04:29:26.535Z,4
2022-09-21T04:30:27.023Z,4
2022-09-21T04:31:26.841Z,4
2022-09-21T04:32:26.220Z,4
2022-09-21T04:33:26.467Z,4
2022-09-21T04:34:26.448Z,8
2022-09-21T04:35:26.688Z,8
2022-09-21T04:36:26.931Z,12
2022-09-21T04:37:27.086Z,16
2022-09-21T04:38:26.385Z,16
2022-09-21T04:39:26.361Z,20
2022-09-21T04:40:26.897Z,24
2022-09-21T04:41:26.582Z,24
2022-09-21T04:42:26.563Z,32
2022-09-21T04:43:29.347Z,36
2022-09-21T04:44:26.296Z,44
2022-09-21T04:45:26.257Z,52
2022-09-21T04:46:26.718Z,56
2022-09-21T04:47:26.223Z,64
2022-09-21T04:48:26.462Z,76
2022-09-21T04:49:26.445Z,84
2022-09-21T04:50:26.439Z,92
2022-09-21T04:51:26.666Z,104
2022-09-21T04:52:26.141Z,116
2022-09-21T04:53:26.748Z,128
2022-09-21T04:54:26.361Z,140
2022-09-21T04:55:26.341Z,156
2022-09-21T04:56:26.073Z,172
2022-09-21T04:57:26.559Z,184
2022-09-21T04:58:30.996Z,204
2022-09-21T04:59:26.526Z,220
2022-09-21T05:00:26.253Z,240
2022-09-21T05:01:26.235Z,256
2022-09-21T05:02:25.981Z,276
2022-09-21T05:03:26.132Z,296
2022-09-21T05:04:25.937Z,316
2022-09-21T05:05:26.422Z,344
2022-09-21T05:06:26.155Z,368
2022-09-21T05:07:26.137Z,396
2022-09-21T05:08:26.378Z,428
2022-09-21T05:09:26.525Z,456
2022-09-21T05:10:26.347Z,484
2022-09-21T05:11:26.077Z,516
2022-09-21T05:12:25.555Z,544
2022-09-21T05:13:26.350Z,576
2022-09-21T05:14:26.019Z,604
2022-09-21T05:15:25.624Z,632
2022-09-21T05:16:26.239Z,660
2022-09-21T05:17:25.451Z,692
2022-09-21T05:18:25.703Z,724
2022-09-21T05:19:25.675Z,768
2022-09-21T05:20:26.234Z,804
2022-09-21T05:21:25.658Z,828
2022-09-21T05:22:26.133Z,864
2022-09-21T05:23:25.609Z,908
2022-09-21T05:24:25.336Z,928
2022-09-21T05:25:26.299Z,928
2022-09-21T05:26:25.819Z,940
2022-09-21T05:27:25.546Z,984
2022-09-21T05:28:25.781Z,1008
2022-09-21T05:29:26.039Z,1044
2022-09-21T05:30:25.313Z,1092
2022-09-21T05:31:25.790Z,1196
2022-09-21T05:32:25.461Z,1276
2022-09-21T05:33:25.437Z,1308
2022-09-21T05:34:25.949Z,1304
2022-09-21T05:35:25.918Z,1316
2022-09-21T05:36:25.385Z,1400
2022-09-21T05:37:25.373Z,1468
2022-09-21T05:38:25.880Z,1480
2022-09-21T05:39:25.587Z,1512
2022-09-21T05:40:25.601Z,1544
2022-09-21T05:41:25.917Z,1528
2022-09-21T05:42:25.029Z,1516
2022-09-21T05:43:25.267Z,1504
2022-09-21T05:44:25.248Z,1488
2022-09-21T05:45:25.270Z,1484
2022-09-21T05:46:25.396Z,1496
2022-09-21T05:47:25.456Z,1508
2022-09-21T05:48:25.706Z,1528
2022-09-21T05:49:25.675Z,1548
2022-09-21T05:50:25.151Z,1552
2022-09-21T05:51:25.391Z,1556
2022-09-21T05:52:25.115Z,1576
2022-09-21T05:53:25.369Z,1596
2022-09-21T05:54:25.338Z,1628
2022-09-21T05:55:24.810Z,1664
2022-09-21T05:56:25.553Z,1700
2022-09-21T05:57:30.876Z,1732
2022-09-21T05:58:25.269Z,1756
2022-09-21T05:59:24.744Z,1784
2022-09-21T06:00:25.239Z,1800
2022-09-21T06:01:25.487Z,1820
2022-09-21T06:02:25.444Z,1836
2022-09-21T06:03:24.931Z,1836
2022-09-21T06:04:25.175Z,1848
2022-09-21T06:05:25.156Z,1872
2022-09-21T06:06:24.875Z,1884
2022-09-21T06:07:24.871Z,1904
2022-09-21T06:08:24.845Z,1916
2022-09-21T06:09:24.854Z,1928
2022-09-21T06:10:25.068Z,1940
2022-09-21T06:11:24.795Z,1944
2022-09-21T06:12:25.033Z,1952
2022-09-21T06:13:25.366Z,1972
2022-09-21T06:14:25.003Z,2012
2022-09-21T06:15:24.741Z,2048
2022-09-21T06:16:25.162Z,2092
2022-09-21T06:17:24.698Z,2124
2022-09-21T06:18:25.379Z,2148
2022-09-21T06:19:25.177Z,2160
2022-09-21T06:20:25.170Z,2232
2022-09-21T06:21:24.636Z,2372
2022-09-21T06:22:24.610Z,2572
2022-09-21T06:23:25.110Z,2800
2022-09-21T06:24:27.231Z,2856
2022-09-21T06:25:24.993Z,2924
2022-09-21T06:26:24.807Z,2992
2022-09-21T06:27:24.786Z,3044
2022-09-21T06:28:24.769Z,3088
2022-09-21T06:29:25.321Z,3032
2022-09-21T06:30:24.241Z,2988
2022-09-21T06:31:24.720Z,3012
2022-09-21T06:32:27.909Z,3184
2022-09-21T06:33:24.432Z,3396
2022-09-21T06:34:24.417Z,3520
2022-09-21T06:35:24.403Z,3464
2022-09-21T06:36:24.400Z,3508
2022-09-21T06:37:24.621Z,3504
2022-09-21T06:38:24.607Z,3496
2022-09-21T06:39:24.860Z,3676
2022-09-21T06:40:25.809Z,3708
2022-09-21T06:41:27.821Z,3556
2022-09-21T06:42:24.295Z,3552
2022-09-21T06:43:24.314Z,3832
2022-09-21T06:44:24.514Z,4152
2022-09-21T06:45:24.863Z,4112
2022-09-21T06:46:24.620Z,3736
2022-09-21T06:47:24.231Z,3536
2022-09-21T06:48:24.450Z,3408
2022-09-21T06:49:24.174Z,3280
2022-09-21T06:50:24.163Z,3128
2022-09-21T06:51:24.150Z,3056
2022-09-21T06:52:24.402Z,3080
2022-09-21T06:53:24.115Z,3204
2022-09-21T06:54:24.365Z,3328
2022-09-21T06:55:23.829Z,3528
2022-09-21T06:56:24.334Z,3644
2022-09-21T06:57:24.565Z,3692
2022-09-21T06:58:24.053Z,3832
2022-09-21T06:59:24.306Z,3892
2022-09-21T07:00:24.018Z,4124
2022-09-21T07:01:25.262Z,4212
2022-09-21T07:02:24.465Z,4560
2022-09-21T07:03:23.977Z,4588
2022-09-21T07:04:29.851Z,4128
2022-09-21T07:05:23.944Z,3932
2022-09-21T07:06:24.179Z,3804
2022-09-21T07:07:24.166Z,3468
2022-09-21T07:10:12.345Z,2836
2022-09-21T07:10:28.482Z,2908
2022-09-21T07:11:27.768Z,2940
2022-09-21T07:12:27.772Z,3008
2022-09-21T07:13:28.259Z,2732
2022-09-21T07:14:28.237Z,2812
2022-09-21T07:15:27.967Z,2812
2022-09-21T07:16:28.772Z,2944
2022-09-21T07:17:27.680Z,3260
2022-09-21T07:18:27.676Z,3732
2022-09-21T07:19:28.165Z,3900
2022-09-21T07:20:28.159Z,4156
2022-09-21T07:21:28.128Z,5080
2022-09-21T07:22:27.866Z,5356
2022-09-21T07:23:27.874Z,5044
2022-09-21T07:24:27.856Z,5424
2022-09-21T07:25:27.821Z,5476
2022-09-21T07:26:27.551Z,5140
2022-09-21T07:27:28.060Z,5108
2022-09-21T07:28:27.526Z,5144
2022-09-21T07:29:27.510Z,4920
2022-09-21T07:30:27.243Z,4128
2022-09-21T07:31:27.981Z,3752
2022-09-21T07:32:28.075Z,3488
2022-09-21T07:33:27.717Z,3472
2022-09-21T07:34:27.709Z,3456
2022-09-21T07:35:28.167Z,3264
2022-09-21T07:36:27.941Z,3180
2022-09-21T07:37:27.405Z,3044
2022-09-21T07:38:27.135Z,2852
2022-09-21T07:39:27.370Z,2856
2022-09-21T07:40:32.008Z,2960
2022-09-21T07:41:28.060Z,3028
2022-09-21T07:42:27.606Z,3112
2022-09-21T07:43:27.573Z,3016
2022-09-21T07:44:27.564Z,3024
2022-09-21T07:45:27.528Z,3220
2022-09-21T07:46:27.806Z,3388
2022-09-21T07:47:27.267Z,3480
2022-09-21T07:48:27.980Z,3752
2022-09-21T07:49:27.235Z,4168
2022-09-21T07:50:27.599Z,3824
2022-09-21T07:51:27.215Z,3172
2022-09-21T07:52:27.194Z,3008
2022-09-21T07:53:27.437Z,2848
2022-09-21T07:54:27.423Z,2852
2022-09-21T07:55:26.898Z,3152
2022-09-21T07:56:27.166Z,3164
2022-09-21T07:57:27.631Z,3212
2022-09-21T07:58:27.628Z,3284
2022-09-21T07:59:27.606Z,3508
2022-09-21T08:00:27.475Z,3464
2022-09-21T08:01:27.793Z,3832
2022-09-21T08:02:27.725Z,3664
2022-09-21T08:03:27.055Z,3572
2022-09-21T08:04:27.695Z,3300
2022-09-21T08:05:27.270Z,3072
2022-09-21T08:06:27.517Z,2612
2022-09-21T08:07:27.244Z,2584
2022-09-21T08:08:27.239Z,2712
2022-09-21T08:09:27.316Z,2596
2022-09-21T08:10:27.712Z,2500
2022-09-21T08:11:27.511Z,2516
2022-09-21T08:12:27.180Z,2564
2022-09-21T08:13:26.914Z,2772
2022-09-21T08:14:32.925Z,2812
2022-09-21T08:15:55.320Z,2896
2022-09-21T08:16:27.515Z,3012
2022-09-21T08:17:27.114Z,3256
2022-09-21T08:18:27.100Z,3844
2022-09-21T08:19:26.839Z,5076
2022-09-21T08:20:27.720Z,5672
2022-09-21T08:21:27.085Z,5212
2022-09-21T08:22:27.303Z,5420
2022-09-21T08:23:27.049Z,5148
2022-09-21T08:24:27.177Z,5244
2022-09-21T08:25:26.760Z,4792
2022-09-21T08:26:26.997Z,4392
2022-09-21T08:27:29.727Z,3688
2022-09-21T08:28:26.975Z,3168
2022-09-21T08:29:26.958Z,3484
2022-09-21T08:30:26.687Z,3380
2022-09-21T08:31:27.264Z,3268
2022-09-21T08:32:56.669Z,5212
2022-09-21T08:33:32.403Z,4820
2022-09-21T08:34:26.640Z,3880
2022-09-21T08:35:26.698Z,3184
2022-09-21T08:36:27.231Z,3980
2022-09-21T08:37:26.867Z,4868
2022-09-21T08:38:26.840Z,4920
2022-09-21T08:39:27.092Z,4992
2022-09-21T08:40:26.929Z,3712
2022-09-21T08:41:26.560Z,2876
2022-09-21T08:42:27.045Z,2648
2022-09-21T08:43:26.532Z,2968
2022-09-21T08:44:26.321Z,2320
2022-09-21T08:45:27.026Z,2304
2022-09-21T08:46:26.691Z,2684
2022-09-21T08:47:26.740Z,2836
2022-09-21T08:48:39.355Z,2476
2022-09-21T08:49:26.710Z,2568
2022-09-21T08:50:26.438Z,3348
2022-09-21T08:51:26.632Z,3336
2022-09-21T08:52:27.045Z,3244
2022-09-21T08:53:26.599Z,3360
2022-09-21T08:54:26.390Z,3960
2022-09-21T08:55:26.634Z,2892
2022-09-21T08:57:00.924Z,2728
2022-09-21T08:57:26.354Z,3324
2022-09-21T08:58:26.608Z,4444
2022-09-21T08:59:26.586Z,4700
2022-09-21T09:00:27.022Z,4012
2022-09-21T09:01:26.893Z,3164
2022-09-21T09:02:26.900Z,2868
2022-09-21T09:03:26.542Z,2804
2022-09-21T09:04:26.790Z,3616
2022-09-21T09:05:26.523Z,3044
2022-09-21T09:06:31.739Z,2864
2022-09-21T09:07:26.494Z,2940
2022-09-21T09:08:26.880Z,3028
2022-09-21T09:09:26.467Z,3320
2022-09-21T09:10:26.531Z,3968
2022-09-21T09:11:26.188Z,4160
2022-09-21T09:12:26.448Z,4316
2022-09-21T09:13:26.422Z,3920
2022-09-21T09:14:26.416Z,3992
2022-09-21T09:15:26.395Z,3760
2022-09-21T09:16:26.413Z,3540
2022-09-21T09:17:26.383Z,3628
2022-09-21T09:18:26.622Z,3688
2022-09-21T09:19:26.615Z,4160
2022-09-21T09:20:26.448Z,4708
2022-09-21T09:21:37.434Z,4172
2022-09-21T09:22:26.344Z,5284
2022-09-21T09:23:26.563Z,8112
2022-09-21T09:24:26.652Z,7016
2022-09-21T09:25:26.281Z,5732
2022-09-21T09:26:26.014Z,6272
2022-09-21T09:27:26.011Z,6380
2022-09-21T09:28:26.546Z,6208
2022-09-21T09:29:26.235Z,5224
2022-09-21T09:30:26.621Z,4548
2022-09-21T09:31:26.418Z,4700
2022-09-21T09:32:26.209Z,4568
2022-09-21T09:33:26.202Z,5328
2022-09-21T09:34:26.193Z,4992
2022-09-21T09:35:26.430Z,5148
2022-09-21T09:37:02.847Z,3760
2022-09-21T09:37:26.410Z,3672
2022-09-21T09:38:26.146Z,4528
2022-09-21T09:39:25.882Z,4616
2022-09-21T09:40:26.865Z,4500
2022-09-21T09:41:26.144Z,4632
2022-09-21T09:42:26.106Z,4416
2022-09-21T09:43:25.860Z,5048
2022-09-21T09:44:25.835Z,5348
2022-09-21T09:45:31.040Z,6388
2022-09-21T09:46:26.043Z,7164
2022-09-21T09:47:26.306Z,6716
2022-09-21T09:48:25.790Z,6652
2022-09-21T09:49:26.047Z,6404
2022-09-21T09:50:26.123Z,5372
2022-09-21T09:51:25.766Z,4552
2022-09-21T09:52:26.260Z,4416
2022-09-21T09:53:26.264Z,4376
2022-09-21T09:54:26.246Z,4260
2022-09-21T09:55:25.722Z,4768
2022-09-21T09:56:26.330Z,5296
2022-09-21T09:57:26.210Z,5068
2022-09-21T09:58:25.960Z,5856
2022-09-21T09:59:26.205Z,6688
2022-09-21T10:00:26.021Z,6340
2022-09-21T10:01:26.167Z,6652
2022-09-21T10:02:25.900Z,6580
2022-09-21T10:03:25.902Z,5492
2022-09-21T10:04:26.204Z,5604
2022-09-21T10:05:26.134Z,6056
2022-09-21T10:06:25.622Z,5172
2022-09-21T10:07:26.113Z,4676
2022-09-21T10:08:25.854Z,4536
2022-09-21T10:09:26.086Z,4964
2022-09-21T10:10:26.169Z,5732
2022-09-21T10:11:25.558Z,5796
2022-09-21T10:12:26.170Z,5524
2022-09-21T10:13:25.575Z,5628
2022-09-21T10:14:25.533Z,6160
2022-09-21T10:15:26.040Z,6756
2022-09-21T10:16:26.517Z,7468
2022-09-21T10:17:26.018Z,8092
2022-09-21T10:18:25.508Z,7460
2022-09-21T10:19:25.989Z,6612
2022-09-21T10:20:25.605Z,5392
2022-09-21T10:21:25.754Z,4932
2022-09-21T10:22:25.709Z,4820
2022-09-21T10:23:25.954Z,5096
2022-09-21T10:24:25.451Z,6392
2022-09-21T10:25:25.933Z,7068
2022-09-21T10:26:25.672Z,7376
2022-09-21T10:27:25.664Z,7532
2022-09-21T10:28:26.025Z,7884
2022-09-21T10:29:25.391Z,7992
2022-09-21T10:30:25.687Z,7976
2022-09-21T10:31:26.427Z,7408
2022-09-21T10:32:25.610Z,6552
2022-09-21T10:33:25.861Z,6296
2022-09-21T10:34:25.592Z,5912
2022-09-21T10:35:25.838Z,6292
2022-09-21T10:36:25.581Z,5888
2022-09-21T10:37:25.057Z,6036
2022-09-21T10:38:29.599Z,5624
2022-09-21T10:39:25.561Z,5832
2022-09-21T10:40:26.077Z,6168
2022-09-21T10:41:25.536Z,6744
2022-09-21T10:42:25.537Z,7348
2022-09-21T10:43:27.205Z,7448
2022-09-21T10:44:25.870Z,7236
2022-09-21T10:45:25.490Z,7216
2022-09-21T10:46:26.108Z,7468
2022-09-21T10:47:25.222Z,7328
2022-09-21T10:48:25.730Z,6840
2022-09-21T10:49:25.717Z,6100
2022-09-21T10:50:25.187Z,5588
2022-09-21T10:51:25.686Z,5420
2022-09-21T10:52:25.692Z,5444
2022-09-21T10:53:25.517Z,5444
2022-09-21T10:54:25.409Z,5404
2022-09-21T10:55:25.146Z,5292
2022-09-21T10:56:25.605Z,5096
2022-09-21T10:57:25.126Z,4968
2022-09-21T10:58:25.119Z,4916
2022-09-21T10:59:25.654Z,5092
2022-09-21T11:00:25.794Z,5292
2022-09-21T11:01:26.017Z,5636
2022-09-21T11:02:25.869Z,5904
2022-09-21T11:03:25.076Z,6196
2022-09-21T11:04:25.310Z,6428
2022-09-21T11:05:25.314Z,6596
2022-09-21T11:06:24.786Z,6992
2022-09-21T11:07:25.301Z,7312
2022-09-21T11:08:25.029Z,7596
2022-09-21T11:09:24.756Z,7648
2022-09-21T11:10:25.386Z,7144
2022-09-21T11:11:25.265Z,6456
2022-09-21T11:12:25.254Z,6232
2022-09-21T11:13:24.972Z,5620
2022-09-21T11:14:25.487Z,5384
2022-09-21T11:15:25.516Z,5392
2022-09-21T11:16:25.848Z,5192
2022-09-21T11:17:24.932Z,4860
2022-09-21T11:18:24.673Z,4852
2022-09-21T11:19:25.430Z,4820
2022-09-21T11:20:25.009Z,4900
2022-09-21T11:21:25.414Z,5144
2022-09-21T11:22:25.146Z,5532
2022-09-21T11:23:25.135Z,5560
2022-09-21T11:24:25.280Z,5436
2022-09-21T11:25:25.371Z,5392
2022-09-21T11:26:25.363Z,5408
2022-09-21T11:27:25.096Z,5544
2022-09-21T11:28:25.355Z,6044
2022-09-21T11:30:24.753Z,7652
2022-09-21T11:31:24.830Z,8552
2022-09-21T11:32:25.404Z,9228
2022-09-21T11:33:25.050Z,9560
2022-09-21T11:34:24.772Z,9796
2022-09-21T11:35:25.026Z,9676
2022-09-21T11:36:24.761Z,9340
2022-09-21T11:37:25.006Z,8904
2022-09-21T11:38:25.248Z,8232
2022-09-21T11:39:24.737Z,7352
2022-09-21T11:40:25.329Z,6496
2022-09-21T11:41:24.966Z,5744
2022-09-21T11:42:24.464Z,5300
2022-09-21T11:43:28.589Z,4916
2022-09-21T11:44:26.517Z,4860
2022-09-21T11:45:24.423Z,4996
2022-09-21T11:46:25.040Z,5244
2022-09-21T11:47:25.180Z,5436
2022-09-21T11:48:25.253Z,6160
2022-09-21T11:49:24.908Z,6704
2022-09-21T11:50:40.480Z,7188
2022-09-21T11:51:24.919Z,7456
2022-09-21T11:52:24.874Z,7648
2022-09-21T11:53:24.913Z,7768
2022-09-21T11:54:25.128Z,7888
2022-09-21T11:55:25.109Z,7812
2022-09-21T11:56:24.834Z,7608
2022-09-21T11:57:24.831Z,7432
2022-09-21T11:58:24.837Z,7280
2022-09-21T11:59:24.553Z,7116
2022-09-21T12:00:24.840Z,6956
2022-09-21T12:01:25.078Z,6748
2022-09-21T12:02:25.817Z,6600
2022-09-21T12:03:24.777Z,6596
2022-09-21T12:04:25.132Z,6700
2022-09-21T12:05:24.501Z,6752
2022-09-21T12:06:25.003Z,6736
2022-09-21T12:07:24.744Z,6660
2022-09-21T12:08:24.494Z,6608
2022-09-21T12:09:24.723Z,6644
2022-09-21T12:10:24.725Z,6712
2022-09-21T12:11:24.448Z,6716
2022-09-21T12:12:24.693Z,6700
2022-09-21T12:13:24.684Z,6728
2022-09-21T12:14:24.165Z,6728
2022-09-21T12:15:24.969Z,6788
2022-09-21T12:16:24.904Z,6920
2022-09-21T12:17:24.688Z,7188
2022-09-21T12:18:24.900Z,7588
2022-09-21T12:19:24.379Z,8096
2022-09-21T12:20:25.025Z,8244
2022-09-21T12:21:24.101Z,8244
2022-09-21T12:22:24.867Z,8460
2022-09-21T12:23:24.343Z,8728
2022-09-21T12:24:27.484Z,8712
2022-09-21T12:25:24.580Z,8944
2022-09-21T12:26:24.823Z,9304
2022-09-21T12:27:24.813Z,9472
2022-09-21T12:28:24.552Z,9484
2022-09-21T12:29:24.542Z,9776
2022-09-21T12:30:24.938Z,9788
2022-09-21T12:31:24.865Z,9552
2022-09-21T12:32:24.271Z,9228
2022-09-21T12:33:24.770Z,8952
2022-09-21T12:34:24.500Z,8968
2022-09-21T12:35:24.488Z,9180
2022-09-21T12:36:24.864Z,9344
2022-09-21T12:37:24.479Z,9392
2022-09-21T12:38:24.963Z,9148
2022-09-21T12:39:24.725Z,8716
2022-09-21T12:40:24.775Z,8280
2022-09-21T12:41:24.205Z,8100
2022-09-21T12:42:24.181Z,8092
2022-09-21T12:43:24.204Z,8064
2022-09-21T12:44:24.426Z,8128
2022-09-21T12:45:23.900Z,8252
2022-09-21T12:46:24.849Z,8580
2022-09-21T12:47:24.137Z,8960
2022-09-21T12:48:24.429Z,9112
2022-09-21T12:49:24.371Z,9192
2022-09-21T12:50:24.369Z,9068
2022-09-21T12:51:24.110Z,9012
2022-09-21T12:52:24.911Z,8964
2022-09-21T12:53:24.093Z,8840
2022-09-21T12:54:24.598Z,8684
2022-09-21T12:55:24.782Z,8544
2022-09-21T12:56:24.322Z,8492
2022-09-21T12:58:18.462Z,8656
2022-09-21T12:58:27.633Z,8648
2022-09-21T12:59:27.879Z,8584
2022-09-21T13:00:27.628Z,8420
2022-09-21T13:01:28.577Z,8008
2022-09-21T13:02:28.341Z,7352
2022-09-21T13:03:27.602Z,7180
2022-09-21T13:04:28.112Z,7340
2022-09-21T13:05:27.828Z,7552
2022-09-21T13:06:28.087Z,7732
2022-09-21T13:07:28.246Z,8068
2022-09-21T13:08:27.546Z,8112
2022-09-21T13:09:27.804Z,8104
2022-09-21T13:10:27.791Z,8072
2022-09-21T13:11:27.780Z,8112
2022-09-21T13:12:27.773Z,8148
2022-09-21T13:13:27.506Z,8300
2022-09-21T13:14:27.244Z,8364
2022-09-21T13:15:27.743Z,8236
2022-09-21T13:16:27.993Z,8136
2022-09-21T13:17:27.481Z,8076
2022-09-21T13:18:27.219Z,7992
2022-09-21T13:19:27.458Z,7848
2022-09-21T13:20:27.958Z,7720
2022-09-21T13:21:27.703Z,7528
2022-09-21T13:22:27.954Z,7276
2022-09-21T13:23:28.050Z,6900
2022-09-21T13:24:27.680Z,6652
2022-09-21T13:25:27.925Z,6556
2022-09-21T13:26:31.343Z,6416
2022-09-21T13:27:27.648Z,6256
2022-09-21T13:28:27.385Z,6124
2022-09-21T13:29:27.643Z,6148
2022-09-21T13:30:27.372Z,6340
2022-09-21T13:31:48.087Z,6748
2022-09-21T13:32:27.321Z,6856
2022-09-21T13:33:27.350Z,7020
2022-09-21T13:34:27.847Z,6948
2022-09-21T13:35:27.579Z,6812
2022-09-21T13:36:27.124Z,6620
2022-09-21T13:37:27.325Z,6188
2022-09-21T13:38:27.302Z,5712
2022-09-21T13:39:27.918Z,5184
2022-09-21T13:40:27.759Z,4352
2022-09-21T13:42:03.961Z,3460
2022-09-21T13:42:27.263Z,3200
2022-09-21T13:43:27.769Z,2944
2022-09-21T13:44:27.257Z,2788
2022-09-21T13:45:27.646Z,2868
2022-09-21T13:46:27.372Z,3084
2022-09-21T13:47:27.490Z,3344
2022-09-21T13:48:27.741Z,3752
2022-09-21T13:49:27.720Z,4344
2022-09-21T13:50:27.706Z,4896
2022-09-21T13:51:27.705Z,5348
2022-09-21T13:52:27.434Z,5800
2022-09-21T13:53:26.965Z,6212
2022-09-21T13:54:26.914Z,6500
2022-09-21T13:55:27.901Z,6820
2022-09-21T13:56:27.146Z,6920
2022-09-21T13:57:27.143Z,6924
2022-09-21T13:58:27.452Z,6944
2022-09-21T13:59:27.379Z,7072
2022-09-21T14:00:30.958Z,7148
2022-09-21T14:01:53.028Z,7160
2022-09-21T14:02:27.718Z,7148
2022-09-21T14:03:27.353Z,7140
2022-09-21T14:04:27.330Z,7100